Terminal Aerodrome Forecast
Issued by NWS Tulsa, OK

Home | Current Version | Previous Version | Text Only | Print | Product List | Glossary On
Versions: 1 2 3 4 5 6 7 8 9 10 11 12 13 14 15 16 17 18 19
000
FTUS44 KTSA 221500 AAB
TAFTUL
TAF AMD
KTUL 221510Z 2215/2312 16011KT P6SM -RA BKN015
      TEMPO 2215/2217 5SM -TSRA BKN010CB
     FM221700 17010G18KT 6SM -SHRA BR BKN025
      TEMPO 2217/2220 5SM -TSRA BKN010CB
     FM222300 17012KT P6SM OVC008 PROB30 2300/2305 6SM -SHRA BKN010
     FM230500 17010KT 6SM BR OVC007=

USA.gov is the U.S. government's official web portal to all federal, state and local government web resources and services.